sensor_id;sensor_type;location;lat;lon;timestamp;P1;durP1;ratioP1;P2;durP2;ratioP2
21843;SDS011;11084;52.482;9.108;2022-10-31T00:01:01;16.63;;;6.77;;
21843;SDS011;11084;52.482;9.108;2022-10-31T00:03:32;15.23;;;7.33;;
21843;SDS011;11084;52.482;9.108;2022-10-31T00:05:57;23.13;;;8.63;;
21843;SDS011;11084;52.482;9.108;2022-10-31T00:08:23;19.90;;;7.30;;
21843;SDS011;11084;52.482;9.108;2022-10-31T00:10:49;16.77;;;7.60;;
21843;SDS011;11084;52.482;9.108;2022-10-31T00:13:15;21.13;;;8.00;;
21843;SDS011;11084;52.482;9.108;2022-10-31T00:15:42;21.50;;;8.10;;
21843;SDS011;11084;52.482;9.108;2022-10-31T00:18:08;17.83;;;7.70;;
21843;SDS011;11084;52.482;9.108;2022-10-31T00:20:35;24.43;;;7.67;;
21843;SDS011;11084;52.482;9.108;2022-10-31T00:23:02;14.60;;;7.47;;
21843;SDS011;11084;52.482;9.108;2022-10-31T00:25:33;22.67;;;8.20;;
21843;SDS011;11084;52.482;9.108;2022-10-31T00:28:04;16.50;;;8.00;;
21843;SDS011;11084;52.482;9.108;2022-10-31T00:30:32;24.93;;;8.80;;
21843;SDS011;11084;52.482;9.108;2022-10-31T00:32:58;22.83;;;8.97;;
21843;SDS011;11084;52.482;9.108;2022-10-31T00:35:24;24.33;;;8.93;;
21843;SDS011;11084;52.482;9.108;2022-10-31T00:37:51;19.57;;;8.77;;
21843;SDS011;11084;52.482;9.108;2022-10-31T00:40:17;19.93;;;9.27;;
21843;SDS011;11084;52.482;9.108;2022-10-31T00:42:43;26.67;;;9.07;;
21843;SDS011;11084;52.482;9.108;2022-10-31T00:45:09;26.67;;;10.33;;
21843;SDS011;11084;52.482;9.108;2022-10-31T00:47:36;23.87;;;10.40;;
21843;SDS011;11084;52.482;9.108;2022-10-31T00:50:03;23.13;;;9.70;;
21843;SDS011;11084;52.482;9.108;2022-10-31T00:52:31;23.03;;;9.10;;
21843;SDS011;11084;52.482;9.108;2022-10-31T00:54:58;24.67;;;10.17;;
21843;SDS011;11084;52.482;9.108;2022-10-31T00:57:24;22.90;;;11.43;;
21843;SDS011;11084;52.482;9.108;2022-10-31T00:59:50;27.43;;;10.83;;
21843;SDS011;11084;52.482;9.108;2022-10-31T01:02:16;29.63;;;10.83;;
21843;SDS011;11084;52.482;9.108;2022-10-31T01:04:42;31.00;;;11.03;;
21843;SDS011;11084;52.482;9.108;2022-10-31T01:07:09;32.90;;;10.10;;
21843;SDS011;11084;52.482;9.108;2022-10-31T01:09:38;26.27;;;11.67;;
21843;SDS011;11084;52.482;9.108;2022-10-31T01:12:04;31.70;;;12.00;;
21843;SDS011;11084;52.482;9.108;2022-10-31T01:14:30;29.53;;;10.93;;
21843;SDS011;11084;52.482;9.108;2022-10-31T01:16:56;25.83;;;10.77;;
21843;SDS011;11084;52.482;9.108;2022-10-31T01:19:22;26.20;;;11.13;;
21843;SDS011;11084;52.482;9.108;2022-10-31T01:21:49;33.20;;;11.43;;
21843;SDS011;11084;52.482;9.108;2022-10-31T01:24:15;25.17;;;11.33;;
21843;SDS011;11084;52.482;9.108;2022-10-31T01:26:41;32.73;;;11.67;;
21843;SDS011;11084;52.482;9.108;2022-10-31T01:29:08;27.47;;;10.93;;
21843;SDS011;11084;52.482;9.108;2022-10-31T01:31:35;30.60;;;11.17;;
21843;SDS011;11084;52.482;9.108;2022-10-31T01:34:03;27.90;;;11.10;;
21843;SDS011;11084;52.482;9.108;2022-10-31T01:36:33;32.07;;;12.10;;
21843;SDS011;11084;52.482;9.108;2022-10-31T01:39:05;48.57;;;12.40;;
21843;SDS011;11084;52.482;9.108;2022-10-31T01:41:38;25.77;;;11.97;;
21843;SDS011;11084;52.482;9.108;2022-10-31T01:46:43;29.57;;;12.53;;
21843;SDS011;11084;52.482;9.108;2022-10-31T01:54:45;30.67;;;12.07;;
21843;SDS011;11084;52.482;9.108;2022-10-31T01:57:16;29.93;;;13.00;;
21843;SDS011;11084;52.482;9.108;2022-10-31T01:59:48;33.97;;;12.53;;
21843;SDS011;11084;52.482;9.108;2022-10-31T02:02:17;27.90;;;12.97;;
21843;SDS011;11084;52.482;9.108;2022-10-31T02:04:44;32.33;;;12.10;;
21843;SDS011;11084;52.482;9.108;2022-10-31T02:07:16;24.40;;;12.10;;
21843;SDS011;11084;52.482;9.108;2022-10-31T02:09:50;48.30;;;14.43;;
21843;SDS011;11084;52.482;9.108;2022-10-31T02:12:18;32.73;;;13.30;;
21843;SDS011;11084;52.482;9.108;2022-10-31T02:14:45;29.40;;;13.43;;
21843;SDS011;11084;52.482;9.108;2022-10-31T02:17:12;29.33;;;12.90;;
21843;SDS011;11084;52.482;9.108;2022-10-31T02:23:03;25.50;;;11.70;;
21843;SDS011;11084;52.482;9.108;2022-10-31T02:32:20;29.17;;;11.13;;
21843;SDS011;11084;52.482;9.108;2022-10-31T02:40:30;27.23;;;11.03;;
21843;SDS011;11084;52.482;9.108;2022-10-31T02:43:23;21.17;;;10.83;;
21843;SDS011;11084;52.482;9.108;2022-10-31T02:49:23;25.67;;;10.57;;
21843;SDS011;11084;52.482;9.108;2022-10-31T02:52:00;27.10;;;10.93;;
21843;SDS011;11084;52.482;9.108;2022-10-31T02:54:27;31.93;;;11.37;;
21843;SDS011;11084;52.482;9.108;2022-10-31T02:56:59;23.27;;;10.20;;
21843;SDS011;11084;52.482;9.108;2022-10-31T02:59:31;26.83;;;12.27;;
21843;SDS011;11084;52.482;9.108;2022-10-31T03:07:42;34.30;;;12.53;;
21843;SDS011;11084;52.482;9.108;2022-10-31T03:16:14;31.00;;;11.97;;
21843;SDS011;11084;52.482;9.108;2022-10-31T03:19:16;24.33;;;11.67;;
21843;SDS011;11084;52.482;9.108;2022-10-31T03:22:04;24.73;;;12.10;;
21843;SDS011;11084;52.482;9.108;2022-10-31T03:24:47;33.50;;;12.77;;
21843;SDS011;11084;52.482;9.108;2022-10-31T03:27:15;33.17;;;12.53;;
21843;SDS011;11084;52.482;9.108;2022-10-31T03:29:49;28.17;;;12.50;;
21843;SDS011;11084;52.482;9.108;2022-10-31T03:32:25;24.77;;;11.90;;
21843;SDS011;11084;52.482;9.108;2022-10-31T03:34:59;40.77;;;12.00;;
21843;SDS011;11084;52.482;9.108;2022-10-31T03:37:29;23.20;;;11.23;;
21843;SDS011;11084;52.482;9.108;2022-10-31T03:39:58;23.03;;;12.60;;
21843;SDS011;11084;52.482;9.108;2022-10-31T03:42:29;39.00;;;14.40;;
21843;SDS011;11084;52.482;9.108;2022-10-31T03:45:05;25.07;;;12.83;;
21843;SDS011;11084;52.482;9.108;2022-10-31T03:47:41;30.63;;;12.47;;
21843;SDS011;11084;52.482;9.108;2022-10-31T03:50:09;28.53;;;12.13;;
21843;SDS011;11084;52.482;9.108;2022-10-31T03:55:28;36.43;;;13.97;;
21843;SDS011;11084;52.482;9.108;2022-10-31T03:58:02;35.57;;;14.63;;
21843;SDS011;11084;52.482;9.108;2022-10-31T04:00:35;29.17;;;13.60;;
21843;SDS011;11084;52.482;9.108;2022-10-31T04:03:07;29.30;;;14.10;;
21843;SDS011;11084;52.482;9.108;2022-10-31T04:05:47;37.57;;;15.37;;
21843;SDS011;11084;52.482;9.108;2022-10-31T04:08:18;34.70;;;14.67;;
21843;SDS011;11084;52.482;9.108;2022-10-31T04:10:52;40.10;;;14.03;;
21843;SDS011;11084;52.482;9.108;2022-10-31T04:13:23;43.73;;;14.97;;
21843;SDS011;11084;52.482;9.108;2022-10-31T04:16:08;35.57;;;14.60;;
21843;SDS011;11084;52.482;9.108;2022-10-31T04:18:35;29.30;;;13.47;;
21843;SDS011;11084;52.482;9.108;2022-10-31T04:21:03;41.07;;;13.70;;
21843;SDS011;11084;52.482;9.108;2022-10-31T04:23:32;41.93;;;15.40;;
21843;SDS011;11084;52.482;9.108;2022-10-31T04:26:05;217.27;;;15.77;;
21843;SDS011;11084;52.482;9.108;2022-10-31T04:28:31;649.13;;;23.70;;
21843;SDS011;11084;52.482;9.108;2022-10-31T04:30:58;518.00;;;18.70;;
21843;SDS011;11084;52.482;9.108;2022-10-31T04:33:30;518.90;;;19.33;;
21843;SDS011;11084;52.482;9.108;2022-10-31T04:35:56;430.70;;;15.83;;
21843;SDS011;11084;52.482;9.108;2022-10-31T04:38:22;775.17;;;26.17;;
21843;SDS011;11084;52.482;9.108;2022-10-31T04:40:48;309.30;;;13.40;;
21843;SDS011;11084;52.482;9.108;2022-10-31T04:43:37;471.40;;;13.57;;
21843;SDS011;11084;52.482;9.108;2022-10-31T04:46:03;17.67;;;7.20;;
21843;SDS011;11084;52.482;9.108;2022-10-31T04:48:31;11.77;;;6.37;;
21843;SDS011;11084;52.482;9.108;2022-10-31T04:51:00;15.83;;;6.13;;
21843;SDS011;11084;52.482;9.108;2022-10-31T04:53:27;152.10;;;8.70;;
21843;SDS011;11084;52.482;9.108;2022-10-31T04:56:28;13.57;;;6.67;;
21843;SDS011;11084;52.482;9.108;2022-10-31T04:58:58;18.27;;;8.37;;
21843;SDS011;11084;52.482;9.108;2022-10-31T05:01:26;13.23;;;6.80;;
21843;SDS011;11084;52.482;9.108;2022-10-31T05:03:54;12.37;;;7.20;;
21843;SDS011;11084;52.482;9.108;2022-10-31T05:06:20;16.33;;;8.07;;
21843;SDS011;11084;52.482;9.108;2022-10-31T05:08:45;14.83;;;7.90;;
21843;SDS011;11084;52.482;9.108;2022-10-31T05:11:12;17.53;;;8.87;;
21843;SDS011;11084;52.482;9.108;2022-10-31T05:13:38;27.80;;;10.93;;
21843;SDS011;11084;52.482;9.108;2022-10-31T05:16:10;20.17;;;9.53;;
21843;SDS011;11084;52.482;9.108;2022-10-31T05:18:39;22.20;;;9.30;;
21843;SDS011;11084;52.482;9.108;2022-10-31T05:21:11;74.90;;;10.63;;
21843;SDS011;11084;52.482;9.108;2022-10-31T05:23:43;17.87;;;8.90;;
21843;SDS011;11084;52.482;9.108;2022-10-31T05:26:09;183.23;;;11.17;;
21843;SDS011;11084;52.482;9.108;2022-10-31T05:28:35;184.33;;;10.00;;
21843;SDS011;11084;52.482;9.108;2022-10-31T05:31:02;416.63;;;15.20;;
21843;SDS011;11084;52.482;9.108;2022-10-31T05:33:29;201.27;;;11.00;;
21843;SDS011;11084;52.482;9.108;2022-10-31T05:36:15;11.07;;;7.00;;
21843;SDS011;11084;52.482;9.108;2022-10-31T05:38:53;9.57;;;6.47;;
21843;SDS011;11084;52.482;9.108;2022-10-31T05:41:39;11.43;;;6.67;;
21843;SDS011;11084;52.482;9.108;2022-10-31T05:44:12;13.87;;;7.10;;
21843;SDS011;11084;52.482;9.108;2022-10-31T05:46:51;14.83;;;7.07;;
21843;SDS011;11084;52.482;9.108;2022-10-31T05:49:52;9.50;;;6.50;;
21843;SDS011;11084;52.482;9.108;2022-10-31T05:52:41;86.70;;;6.40;;
21843;SDS011;11084;52.482;9.108;2022-10-31T05:55:28;42.43;;;4.70;;
21843;SDS011;11084;52.482;9.108;2022-10-31T05:58:11;28.17;;;5.30;;
21843;SDS011;11084;52.482;9.108;2022-10-31T06:00:39;87.83;;;6.97;;
21843;SDS011;11084;52.482;9.108;2022-10-31T06:03:09;143.20;;;8.67;;
21843;SDS011;11084;52.482;9.108;2022-10-31T06:05:56;64.47;;;6.70;;
21843;SDS011;11084;52.482;9.108;2022-10-31T06:08:27;18.13;;;6.10;;
21843;SDS011;11084;52.482;9.108;2022-10-31T06:10:55;58.23;;;6.60;;
21843;SDS011;11084;52.482;9.108;2022-10-31T06:13:41;21.73;;;5.20;;
21843;SDS011;11084;52.482;9.108;2022-10-31T06:16:15;19.07;;;5.10;;
21843;SDS011;11084;52.482;9.108;2022-10-31T06:18:42;145.90;;;7.83;;
21843;SDS011;11084;52.482;9.108;2022-10-31T06:21:08;40.30;;;6.57;;
21843;SDS011;11084;52.482;9.108;2022-10-31T06:23:35;73.77;;;6.60;;
21843;SDS011;11084;52.482;9.108;2022-10-31T06:26:19;15.47;;;5.33;;
21843;SDS011;11084;52.482;9.108;2022-10-31T06:28:47;63.87;;;6.93;;
21843;SDS011;11084;52.482;9.108;2022-10-31T06:31:25;63.77;;;6.53;;
21843;SDS011;11084;52.482;9.108;2022-10-31T06:33:51;67.07;;;7.27;;
21843;SDS011;11084;52.482;9.108;2022-10-31T06:36:17;35.60;;;6.20;;
21843;SDS011;11084;52.482;9.108;2022-10-31T06:38:43;8.80;;;5.80;;
21843;SDS011;11084;52.482;9.108;2022-10-31T06:41:10;12.47;;;6.87;;
21843;SDS011;11084;52.482;9.108;2022-10-31T06:43:41;32.47;;;6.93;;
21843;SDS011;11084;52.482;9.108;2022-10-31T06:46:36;8.77;;;6.10;;
21843;SDS011;11084;52.482;9.108;2022-10-31T06:49:28;19.30;;;6.20;;
21843;SDS011;11084;52.482;9.108;2022-10-31T06:51:58;21.83;;;7.67;;
21843;SDS011;11084;52.482;9.108;2022-10-31T06:54:25;112.00;;;8.50;;
21843;SDS011;11084;52.482;9.108;2022-10-31T06:56:51;15.87;;;7.10;;
21843;SDS011;11084;52.482;9.108;2022-10-31T06:59:18;8.67;;;6.60;;
21843;SDS011;11084;52.482;9.108;2022-10-31T07:02:09;11.50;;;7.63;;
21843;SDS011;11084;52.482;9.108;2022-10-31T07:04:36;11.97;;;7.47;;
21843;SDS011;11084;52.482;9.108;2022-10-31T07:07:02;19.30;;;8.47;;
21843;SDS011;11084;52.482;9.108;2022-10-31T07:09:29;12.83;;;8.03;;
21843;SDS011;11084;52.482;9.108;2022-10-31T07:11:59;16.10;;;8.57;;
21843;SDS011;11084;52.482;9.108;2022-10-31T07:14:27;14.80;;;9.10;;
21843;SDS011;11084;52.482;9.108;2022-10-31T07:16:53;15.73;;;9.50;;
21843;SDS011;11084;52.482;9.108;2022-10-31T07:19:25;24.83;;;9.63;;
21843;SDS011;11084;52.482;9.108;2022-10-31T07:21:51;17.17;;;9.13;;
21843;SDS011;11084;52.482;9.108;2022-10-31T07:24:17;15.17;;;9.07;;
21843;SDS011;11084;52.482;9.108;2022-10-31T07:26:43;21.10;;;11.67;;
21843;SDS011;11084;52.482;9.108;2022-10-31T07:29:12;23.33;;;11.37;;
21843;SDS011;11084;52.482;9.108;2022-10-31T07:31:38;14.83;;;8.83;;
21843;SDS011;11084;52.482;9.108;2022-10-31T07:34:13;16.33;;;8.73;;
21843;SDS011;11084;52.482;9.108;2022-10-31T07:36:59;18.33;;;8.77;;
21843;SDS011;11084;52.482;9.108;2022-10-31T07:39:25;12.40;;;7.97;;
21843;SDS011;11084;52.482;9.108;2022-10-31T07:41:51;16.07;;;7.90;;
21843;SDS011;11084;52.482;9.108;2022-10-31T07:44:18;11.13;;;6.73;;
21843;SDS011;11084;52.482;9.108;2022-10-31T07:46:59;13.03;;;8.13;;
21843;SDS011;11084;52.482;9.108;2022-10-31T07:49:43;16.20;;;8.73;;
21843;SDS011;11084;52.482;9.108;2022-10-31T07:52:30;26.80;;;8.87;;
21843;SDS011;11084;52.482;9.108;2022-10-31T07:55:14;18.77;;;9.80;;
21843;SDS011;11084;52.482;9.108;2022-10-31T07:57:45;17.03;;;9.27;;
21843;SDS011;11084;52.482;9.108;2022-10-31T08:00:11;17.93;;;9.23;;
21843;SDS011;11084;52.482;9.108;2022-10-31T08:02:40;19.10;;;9.57;;
21843;SDS011;11084;52.482;9.108;2022-10-31T08:05:27;17.27;;;9.37;;
21843;SDS011;11084;52.482;9.108;2022-10-31T08:08:12;15.00;;;9.13;;
21843;SDS011;11084;52.482;9.108;2022-10-31T08:10:39;18.20;;;9.50;;
21843;SDS011;11084;52.482;9.108;2022-10-31T08:13:07;23.90;;;11.40;;
21843;SDS011;11084;52.482;9.108;2022-10-31T08:15:38;19.53;;;10.07;;
21843;SDS011;11084;52.482;9.108;2022-10-31T08:18:11;20.70;;;10.57;;
21843;SDS011;11084;52.482;9.108;2022-10-31T08:20:39;17.80;;;10.20;;
21843;SDS011;11084;52.482;9.108;2022-10-31T08:23:06;23.30;;;10.63;;
21843;SDS011;11084;52.482;9.108;2022-10-31T08:25:34;21.83;;;10.13;;
21843;SDS011;11084;52.482;9.108;2022-10-31T08:28:01;23.30;;;11.93;;
21843;SDS011;11084;52.482;9.108;2022-10-31T08:30:30;29.63;;;12.67;;
21843;SDS011;11084;52.482;9.108;2022-10-31T08:33:26;30.57;;;12.67;;
21843;SDS011;11084;52.482;9.108;2022-10-31T08:36:10;25.47;;;12.80;;
21843;SDS011;11084;52.482;9.108;2022-10-31T08:38:57;25.40;;;12.80;;
21843;SDS011;11084;52.482;9.108;2022-10-31T08:41:23;30.70;;;13.53;;
21843;SDS011;11084;52.482;9.108;2022-10-31T08:43:49;27.90;;;12.27;;
21843;SDS011;11084;52.482;9.108;2022-10-31T08:46:15;26.97;;;13.70;;
21843;SDS011;11084;52.482;9.108;2022-10-31T08:48:43;23.30;;;12.33;;
21843;SDS011;11084;52.482;9.108;2022-10-31T08:51:09;25.50;;;13.20;;
21843;SDS011;11084;52.482;9.108;2022-10-31T08:53:36;24.73;;;12.17;;
21843;SDS011;11084;52.482;9.108;2022-10-31T08:56:22;27.60;;;12.03;;
21843;SDS011;11084;52.482;9.108;2022-10-31T08:58:48;27.33;;;13.23;;
21843;SDS011;11084;52.482;9.108;2022-10-31T09:01:20;28.70;;;12.87;;
21843;SDS011;11084;52.482;9.108;2022-10-31T09:03:46;25.90;;;11.70;;
21843;SDS011;11084;52.482;9.108;2022-10-31T09:06:12;27.17;;;12.20;;
21843;SDS011;11084;52.482;9.108;2022-10-31T09:08:38;23.50;;;11.77;;
21843;SDS011;11084;52.482;9.108;2022-10-31T09:11:05;22.80;;;11.63;;
21843;SDS011;11084;52.482;9.108;2022-10-31T09:13:52;25.77;;;11.87;;
21843;SDS011;11084;52.482;9.108;2022-10-31T09:16:27;26.43;;;12.03;;
21843;SDS011;11084;52.482;9.108;2022-10-31T09:18:53;25.07;;;11.00;;
21843;SDS011;11084;52.482;9.108;2022-10-31T09:21:19;23.17;;;11.73;;
21843;SDS011;11084;52.482;9.108;2022-10-31T09:23:46;29.87;;;12.93;;
21843;SDS011;11084;52.482;9.108;2022-10-31T09:26:12;23.87;;;12.03;;
21843;SDS011;11084;52.482;9.108;2022-10-31T09:29:01;31.57;;;12.33;;
21843;SDS011;11084;52.482;9.108;2022-10-31T09:31:28;26.40;;;11.63;;
21843;SDS011;11084;52.482;9.108;2022-10-31T09:34:15;38.23;;;13.60;;
21843;SDS011;11084;52.482;9.108;2022-10-31T09:36:47;27.47;;;12.77;;
21843;SDS011;11084;52.482;9.108;2022-10-31T09:39:18;32.17;;;12.77;;
21843;SDS011;11084;52.482;9.108;2022-10-31T09:44:37;33.73;;;12.40;;
21843;SDS011;11084;52.482;9.108;2022-10-31T09:48:13;19.53;;;11.60;;
21843;SDS011;11084;52.482;9.108;2022-10-31T09:51:16;32.17;;;11.67;;
21843;SDS011;11084;52.482;9.108;2022-10-31T09:57:01;27.43;;;13.20;;
21843;SDS011;11084;52.482;9.108;2022-10-31T09:59:35;32.57;;;12.23;;
21843;SDS011;11084;52.482;9.108;2022-10-31T10:05:02;25.33;;;11.07;;
21843;SDS011;11084;52.482;9.108;2022-10-31T10:19:11;24.37;;;12.10;;
21843;SDS011;11084;52.482;9.108;2022-10-31T10:30:26;18.37;;;9.53;;
21843;SDS011;11084;52.482;9.108;2022-10-31T10:33:09;21.77;;;9.83;;
21843;SDS011;11084;52.482;9.108;2022-10-31T10:35:39;29.47;;;10.73;;
21843;SDS011;11084;52.482;9.108;2022-10-31T10:38:39;19.20;;;9.63;;
21843;SDS011;11084;52.482;9.108;2022-10-31T10:41:17;26.00;;;10.43;;
21843;SDS011;11084;52.482;9.108;2022-10-31T10:43:48;25.77;;;10.73;;
21843;SDS011;11084;52.482;9.108;2022-10-31T10:49:17;26.93;;;11.00;;
21843;SDS011;11084;52.482;9.108;2022-10-31T10:52:00;20.73;;;10.03;;
21843;SDS011;11084;52.482;9.108;2022-10-31T11:00:11;29.77;;;10.07;;
21843;SDS011;11084;52.482;9.108;2022-10-31T11:02:43;19.67;;;9.33;;
21843;SDS011;11084;52.482;9.108;2022-10-31T11:05:14;20.93;;;9.17;;
21843;SDS011;11084;52.482;9.108;2022-10-31T11:08:23;18.27;;;8.80;;
21843;SDS011;11084;52.482;9.108;2022-10-31T11:13:30;27.93;;;9.57;;
21843;SDS011;11084;52.482;9.108;2022-10-31T11:18:40;22.23;;;8.93;;
21843;SDS011;11084;52.482;9.108;2022-10-31T11:21:25;22.80;;;8.37;;
21843;SDS011;11084;52.482;9.108;2022-10-31T11:26:36;20.53;;;9.20;;
21843;SDS011;11084;52.482;9.108;2022-10-31T11:29:14;18.77;;;8.93;;
21843;SDS011;11084;52.482;9.108;2022-10-31T11:31:45;24.43;;;9.13;;
21843;SDS011;11084;52.482;9.108;2022-10-31T11:34:23;24.17;;;9.93;;
21843;SDS011;11084;52.482;9.108;2022-10-31T11:37:13;25.50;;;9.37;;
21843;SDS011;11084;52.482;9.108;2022-10-31T11:39:53;22.80;;;10.03;;
21843;SDS011;11084;52.482;9.108;2022-10-31T11:42:22;21.13;;;9.03;;
21843;SDS011;11084;52.482;9.108;2022-10-31T11:44:52;19.17;;;9.20;;
21843;SDS011;11084;52.482;9.108;2022-10-31T11:47:27;19.40;;;9.13;;
21843;SDS011;11084;52.482;9.108;2022-10-31T11:49:55;19.77;;;9.47;;
21843;SDS011;11084;52.482;9.108;2022-10-31T11:52:27;20.27;;;9.87;;
21843;SDS011;11084;52.482;9.108;2022-10-31T11:54:58;25.53;;;10.07;;
21843;SDS011;11084;52.482;9.108;2022-10-31T11:57:57;23.80;;;9.00;;
21843;SDS011;11084;52.482;9.108;2022-10-31T12:03:15;26.00;;;9.60;;
21843;SDS011;11084;52.482;9.108;2022-10-31T12:05:56;23.50;;;9.60;;
21843;SDS011;11084;52.482;9.108;2022-10-31T12:08:34;25.07;;;9.83;;
21843;SDS011;11084;52.482;9.108;2022-10-31T12:20:03;27.37;;;10.07;;
21843;SDS011;11084;52.482;9.108;2022-10-31T12:23:04;28.23;;;9.67;;
21843;SDS011;11084;52.482;9.108;2022-10-31T12:31:53;21.10;;;9.43;;
21843;SDS011;11084;52.482;9.108;2022-10-31T12:38:03;20.93;;;10.13;;
21843;SDS011;11084;52.482;9.108;2022-10-31T12:49:38;17.90;;;8.43;;
21843;SDS011;11084;52.482;9.108;2022-10-31T12:52:45;17.33;;;8.10;;
21843;SDS011;11084;52.482;9.108;2022-10-31T12:55:38;17.00;;;7.80;;
21843;SDS011;11084;52.482;9.108;2022-10-31T12:58:25;16.97;;;8.27;;
21843;SDS011;11084;52.482;9.108;2022-10-31T13:01:02;20.43;;;8.07;;
21843;SDS011;11084;52.482;9.108;2022-10-31T13:06:29;21.43;;;7.80;;
21843;SDS011;11084;52.482;9.108;2022-10-31T13:09:06;22.37;;;8.47;;
21843;SDS011;11084;52.482;9.108;2022-10-31T13:11:43;20.67;;;7.87;;
21843;SDS011;11084;52.482;9.108;2022-10-31T13:16:54;20.17;;;7.43;;
21843;SDS011;11084;52.482;9.108;2022-10-31T13:21:59;18.53;;;7.37;;
21843;SDS011;11084;52.482;9.108;2022-10-31T13:27:30;18.00;;;6.73;;
21843;SDS011;11084;52.482;9.108;2022-10-31T13:30:33;15.47;;;6.67;;
21843;SDS011;11084;52.482;9.108;2022-10-31T13:33:09;20.93;;;7.53;;
21843;SDS011;11084;52.482;9.108;2022-10-31T13:35:48;26.70;;;6.73;;
21843;SDS011;11084;52.482;9.108;2022-10-31T13:38:33;20.00;;;6.27;;
21843;SDS011;11084;52.482;9.108;2022-10-31T13:41:20;17.93;;;6.87;;
21843;SDS011;11084;52.482;9.108;2022-10-31T13:46:49;15.27;;;6.53;;
21843;SDS011;11084;52.482;9.108;2022-10-31T13:49:21;18.67;;;6.40;;
21843;SDS011;11084;52.482;9.108;2022-10-31T14:00:24;23.23;;;5.60;;
21843;SDS011;11084;52.482;9.108;2022-10-31T14:02:52;14.87;;;5.47;;
21843;SDS011;11084;52.482;9.108;2022-10-31T14:08:00;14.23;;;5.90;;
21843;SDS011;11084;52.482;9.108;2022-10-31T14:10:30;16.03;;;6.03;;
21843;SDS011;11084;52.482;9.108;2022-10-31T14:15:34;14.50;;;6.07;;
21843;SDS011;11084;52.482;9.108;2022-10-31T14:18:06;16.20;;;6.27;;
21843;SDS011;11084;52.482;9.108;2022-10-31T14:20:39;10.57;;;5.70;;
21843;SDS011;11084;52.482;9.108;2022-10-31T14:23:11;10.83;;;5.57;;
21843;SDS011;11084;52.482;9.108;2022-10-31T14:25:53;16.43;;;6.77;;
21843;SDS011;11084;52.482;9.108;2022-10-31T14:28:52;19.33;;;7.07;;
21843;SDS011;11084;52.482;9.108;2022-10-31T14:31:26;13.23;;;7.50;;
21843;SDS011;11084;52.482;9.108;2022-10-31T14:51:40;17.30;;;8.20;;
21843;SDS011;11084;52.482;9.108;2022-10-31T14:54:18;25.20;;;9.17;;
21843;SDS011;11084;52.482;9.108;2022-10-31T14:56:59;29.33;;;8.67;;
21843;SDS011;11084;52.482;9.108;2022-10-31T14:59:54;17.33;;;8.30;;
21843;SDS011;11084;52.482;9.108;2022-10-31T15:02:29;25.37;;;8.90;;
21843;SDS011;11084;52.482;9.108;2022-10-31T15:05:13;25.23;;;9.17;;
21843;SDS011;11084;52.482;9.108;2022-10-31T15:07:50;17.27;;;7.83;;
21843;SDS011;11084;52.482;9.108;2022-10-31T15:10:26;26.53;;;8.73;;
21843;SDS011;11084;52.482;9.108;2022-10-31T15:15:52;25.40;;;10.10;;
21843;SDS011;11084;52.482;9.108;2022-10-31T15:18:24;25.37;;;9.53;;
21843;SDS011;11084;52.482;9.108;2022-10-31T15:20:53;29.63;;;10.00;;
21843;SDS011;11084;52.482;9.108;2022-10-31T15:23:22;19.70;;;9.90;;
21843;SDS011;11084;52.482;9.108;2022-10-31T15:26:00;25.57;;;10.40;;
21843;SDS011;11084;52.482;9.108;2022-10-31T15:28:29;34.77;;;10.50;;
21843;SDS011;11084;52.482;9.108;2022-10-31T15:30:57;28.63;;;11.57;;
21843;SDS011;11084;52.482;9.108;2022-10-31T15:33:26;31.23;;;11.53;;
21843;SDS011;11084;52.482;9.108;2022-10-31T15:35:55;24.63;;;11.23;;
21843;SDS011;11084;52.482;9.108;2022-10-31T15:38:28;32.30;;;12.50;;
21843;SDS011;11084;52.482;9.108;2022-10-31T15:43:53;31.10;;;13.03;;
21843;SDS011;11084;52.482;9.108;2022-10-31T15:46:20;33.40;;;12.43;;
21843;SDS011;11084;52.482;9.108;2022-10-31T15:48:47;34.07;;;13.10;;
21843;SDS011;11084;52.482;9.108;2022-10-31T15:51:13;31.43;;;12.50;;
21843;SDS011;11084;52.482;9.108;2022-10-31T15:53:49;23.70;;;12.13;;
21843;SDS011;11084;52.482;9.108;2022-10-31T15:56:24;30.93;;;13.07;;
21843;SDS011;11084;52.482;9.108;2022-10-31T15:58:55;36.10;;;12.70;;
21843;SDS011;11084;52.482;9.108;2022-10-31T16:01:25;35.97;;;13.33;;
21843;SDS011;11084;52.482;9.108;2022-10-31T16:06:38;33.70;;;13.07;;
21843;SDS011;11084;52.482;9.108;2022-10-31T16:09:18;33.10;;;13.40;;
21843;SDS011;11084;52.482;9.108;2022-10-31T16:11:47;29.97;;;12.70;;
21843;SDS011;11084;52.482;9.108;2022-10-31T16:14:23;33.03;;;13.33;;
21843;SDS011;11084;52.482;9.108;2022-10-31T16:16:58;32.60;;;13.27;;
21843;SDS011;11084;52.482;9.108;2022-10-31T16:19:28;31.73;;;13.27;;
21843;SDS011;11084;52.482;9.108;2022-10-31T16:22:03;27.57;;;12.37;;
21843;SDS011;11084;52.482;9.108;2022-10-31T16:24:48;26.73;;;12.20;;
21843;SDS011;11084;52.482;9.108;2022-10-31T16:27:23;35.93;;;13.10;;
21843;SDS011;11084;52.482;9.108;2022-10-31T16:29:54;36.27;;;13.60;;
21843;SDS011;11084;52.482;9.108;2022-10-31T16:32:32;35.23;;;12.63;;
21843;SDS011;11084;52.482;9.108;2022-10-31T16:35:21;33.07;;;12.90;;
21843;SDS011;11084;52.482;9.108;2022-10-31T16:37:57;31.47;;;11.63;;
21843;SDS011;11084;52.482;9.108;2022-10-31T16:40:23;36.67;;;12.83;;
21843;SDS011;11084;52.482;9.108;2022-10-31T16:42:50;26.67;;;11.73;;
21843;SDS011;11084;52.482;9.108;2022-10-31T16:45:24;36.43;;;12.33;;
21843;SDS011;11084;52.482;9.108;2022-10-31T16:47:53;36.77;;;14.37;;
21843;SDS011;11084;52.482;9.108;2022-10-31T16:50:28;42.30;;;12.77;;
21843;SDS011;11084;52.482;9.108;2022-10-31T16:52:54;30.53;;;13.60;;
21843;SDS011;11084;52.482;9.108;2022-10-31T16:55:20;35.10;;;13.17;;
21843;SDS011;11084;52.482;9.108;2022-10-31T16:57:48;30.70;;;13.67;;
21843;SDS011;11084;52.482;9.108;2022-10-31T17:00:23;34.17;;;13.60;;
21843;SDS011;11084;52.482;9.108;2022-10-31T17:02:55;33.13;;;13.20;;
21843;SDS011;11084;52.482;9.108;2022-10-31T17:05:22;34.67;;;13.30;;
21843;SDS011;11084;52.482;9.108;2022-10-31T17:07:58;28.87;;;12.57;;
21843;SDS011;11084;52.482;9.108;2022-10-31T17:10:25;26.73;;;11.57;;
21843;SDS011;11084;52.482;9.108;2022-10-31T17:12:52;43.17;;;14.63;;
21843;SDS011;11084;52.482;9.108;2022-10-31T17:15:20;30.47;;;13.60;;
21843;SDS011;11084;52.482;9.108;2022-10-31T17:17:51;34.87;;;12.90;;
21843;SDS011;11084;52.482;9.108;2022-10-31T17:20:22;28.33;;;12.90;;
21843;SDS011;11084;52.482;9.108;2022-10-31T17:22:52;32.10;;;12.87;;
21843;SDS011;11084;52.482;9.108;2022-10-31T17:25:19;32.30;;;13.83;;
21843;SDS011;11084;52.482;9.108;2022-10-31T17:27:54;30.20;;;13.60;;
21843;SDS011;11084;52.482;9.108;2022-10-31T17:30:20;31.13;;;12.93;;
21843;SDS011;11084;52.482;9.108;2022-10-31T17:32:47;29.47;;;13.10;;
21843;SDS011;11084;52.482;9.108;2022-10-31T17:35:15;30.93;;;12.53;;
21843;SDS011;11084;52.482;9.108;2022-10-31T17:37:42;31.57;;;13.27;;
21843;SDS011;11084;52.482;9.108;2022-10-31T17:40:09;32.07;;;12.27;;
21843;SDS011;11084;52.482;9.108;2022-10-31T17:42:38;29.10;;;12.07;;
21843;SDS011;11084;52.482;9.108;2022-10-31T17:45:05;27.13;;;11.83;;
21843;SDS011;11084;52.482;9.108;2022-10-31T17:47:35;26.00;;;11.30;;
21843;SDS011;11084;52.482;9.108;2022-10-31T17:50:02;28.57;;;12.10;;
21843;SDS011;11084;52.482;9.108;2022-10-31T17:52:28;26.37;;;11.67;;